Time;durP1;ratioP1;P1;durP2;ratioP2;P2;SDS_P1;SDS_P2;PMS_P1;PMS_P2;Temp;Humidity;BMP_temperature;BMP_pressure;BME280_temperature;BME280_humidity;BME280_pressure;Samples;Min_cycle;Max_cycle;Signal;HPM_P1;HPM_P2
2024/01/14 00:00:43;;;;;;;17.75;16.85;;;-0.20;99.90;;;;;;5114612;27;20206;-60
2024/01/14 00:03:10;;;;;;;19.60;18.50;;;-0.10;99.90;;;;;;5117337;27;20231;-60
2024/01/14 00:05:37;;;;;;;19.55;18.45;;;-0.20;99.90;;;;;;5126752;27;20221;-60
2024/01/14 00:08:04;;;;;;;18.48;17.38;;;-0.20;99.90;;;;;;5121105;27;20201;-61
2024/01/14 00:10:31;;;;;;;19.67;18.58;;;-0.30;99.90;;;;;;5122664;27;20567;-60
2024/01/14 00:12:57;;;;;;;19.83;18.67;;;-0.40;99.90;;;;;;5126870;27;20205;-59
2024/01/14 00:15:24;;;;;;;18.05;16.95;;;-0.50;99.90;;;;;;5129483;27;20201;-60
2024/01/14 00:17:52;;;;;;;19.20;18.10;;;-0.50;99.90;;;;;;5128304;27;20220;-61
2024/01/14 00:20:19;;;;;;;18.53;17.53;;;-0.50;99.90;;;;;;5125276;27;20198;-62
2024/01/14 00:22:47;;;;;;;18.65;17.55;;;-0.40;99.90;;;;;;5127098;28;20209;-62
2024/01/14 00:25:13;;;;;;;19.10;18.00;;;-0.50;99.90;;;;;;5128030;27;20215;-61
2024/01/14 00:27:40;;;;;;;17.83;16.90;;;-0.50;99.90;;;;;;5125386;28;20217;-60
2024/01/14 00:30:08;;;;;;;18.08;17.08;;;-0.60;99.90;;;;;;5132083;27;20788;-62
2024/01/14 00:32:35;;;;;;;18.17;17.27;;;-0.60;99.90;;;;;;5126718;28;20201;-60
2024/01/14 00:35:03;;;;;;;18.20;17.20;;;-0.60;99.90;;;;;;5135103;27;20228;-60
2024/01/14 00:37:30;;;;;;;18.50;17.40;;;-0.70;99.90;;;;;;5127673;27;20202;-61
2024/01/14 00:39:57;;;;;;;18.17;17.07;;;-0.80;99.90;;;;;;5134182;27;20258;-61
2024/01/14 00:42:24;;;;;;;16.95;15.93;;;-0.80;99.90;;;;;;5132452;27;20206;-59
2024/01/14 00:44:51;;;;;;;17.63;16.63;;;-0.90;99.90;;;;;;5125886;27;20249;-61
2024/01/14 00:47:17;;;;;;;18.70;17.50;;;-0.90;99.90;;;;;;5131616;27;20246;-60
2024/01/14 00:49:44;;;;;;;18.93;17.73;;;-1.00;99.90;;;;;;5130641;27;20209;-60
2024/01/14 00:52:12;;;;;;;18.20;17.10;;;-1.00;99.90;;;;;;5133793;27;20212;-61
2024/01/14 00:54:39;;;;;;;16.67;15.73;;;-1.00;99.90;;;;;;5132075;28;20233;-61
2024/01/14 00:57:07;;;;;;;19.27;17.90;;;-1.00;99.90;;;;;;5131035;27;20197;-61
2024/01/14 00:59:34;;;;;;;17.20;16.27;;;-1.00;99.90;;;;;;5131122;28;20283;-61
2024/01/14 01:02:01;;;;;;;17.13;16.13;;;-1.00;99.90;;;;;;5133788;27;20208;-61
2024/01/14 01:04:27;;;;;;;18.35;17.20;;;-1.00;99.90;;;;;;5130615;27;20230;-61
2024/01/14 01:06:54;;;;;;;17.63;16.63;;;-1.00;99.90;;;;;;5124796;27;20691;-62
2024/01/14 01:09:22;;;;;;;17.20;16.20;;;-1.00;99.90;;;;;;5124837;27;20208;-62
2024/01/14 01:11:49;;;;;;;17.83;16.77;;;-0.90;99.90;;;;;;5122565;27;20215;-60
2024/01/14 01:14:16;;;;;;;17.35;16.45;;;-0.90;99.90;;;;;;5120328;27;20237;-62
2024/01/14 01:16:42;;;;;;;17.38;16.38;;;-0.90;99.90;;;;;;5124018;28;20205;-62
2024/01/14 01:19:09;;;;;;;17.03;16.03;;;-0.90;99.90;;;;;;5132212;27;20209;-60
2024/01/14 01:21:36;;;;;;;17.30;16.30;;;-0.90;99.90;;;;;;5133141;28;20208;-60
2024/01/14 01:24:02;;;;;;;16.92;16.02;;;-0.80;99.90;;;;;;5135028;28;20225;-60
2024/01/14 01:26:31;;;;;;;17.30;16.30;;;-0.80;99.90;;;;;;5136054;27;20588;-60
2024/01/14 01:28:58;;;;;;;17.67;16.67;;;-0.70;99.90;;;;;;5134139;27;20197;-60
2024/01/14 01:31:24;;;;;;;18.10;17.02;;;-0.70;99.90;;;;;;5136685;27;20205;-60
2024/01/14 01:33:51;;;;;;;18.08;17.00;;;-0.70;99.90;;;;;;5132186;27;20229;-61
2024/01/14 01:36:18;;;;;;;17.03;16.13;;;-0.70;99.90;;;;;;5128321;27;20194;-60
2024/01/14 01:38:45;;;;;;;17.85;16.85;;;-0.70;99.90;;;;;;5127561;27;20209;-61
2024/01/14 01:41:11;;;;;;;16.53;15.70;;;-0.70;99.90;;;;;;5126359;27;20202;-61
2024/01/14 01:43:39;;;;;;;17.33;16.37;;;-0.60;99.90;;;;;;5131053;27;20233;-61
2024/01/14 01:46:08;;;;;;;19.00;17.90;;;-0.60;99.90;;;;;;5136315;27;20229;-60
2024/01/14 01:48:35;;;;;;;16.10;15.20;;;-0.60;99.90;;;;;;5124928;27;20206;-60
2024/01/14 01:51:02;;;;;;;17.17;16.27;;;-0.70;99.90;;;;;;5128594;27;20240;-62
2024/01/14 01:53:29;;;;;;;16.95;16.05;;;-0.70;99.90;;;;;;5128747;27;20221;-61
2024/01/14 01:55:56;;;;;;;18.03;17.03;;;-0.70;99.90;;;;;;5128022;27;20198;-61
2024/01/14 01:58:22;;;;;;;17.27;16.27;;;-0.80;99.90;;;;;;5128816;27;20251;-61
2024/01/14 02:00:51;;;;;;;17.17;16.17;;;-0.70;99.90;;;;;;5131468;27;20208;-61
2024/01/14 02:03:19;;;;;;;18.00;17.00;;;-0.70;99.90;;;;;;5129283;27;20217;-61
2024/01/14 02:05:47;;;;;;;17.23;16.33;;;-0.70;99.90;;;;;;5129462;27;20212;-60
2024/01/14 02:08:14;;;;;;;19.23;18.13;;;-0.70;99.90;;;;;;5126842;27;20194;-61
2024/01/14 02:10:41;;;;;;;16.93;16.03;;;-0.80;99.90;;;;;;5130392;27;20578;-61
2024/01/14 02:13:08;;;;;;;16.60;15.70;;;-0.90;99.90;;;;;;5133985;27;20249;-61
2024/01/14 02:15:35;;;;;;;17.93;16.83;;;-0.90;99.90;;;;;;5139407;27;20205;-64
2024/01/14 02:18:03;;;;;;;17.37;16.37;;;-0.80;99.90;;;;;;5133981;27;20216;-61
2024/01/14 02:20:30;;;;;;;17.08;16.08;;;-0.70;99.90;;;;;;5129762;27;20283;-61
2024/01/14 02:22:59;;;;;;;18.20;17.17;;;-0.60;99.90;;;;;;5127119;27;20205;-61
2024/01/14 02:25:27;;;;;;;18.00;17.00;;;-0.50;99.90;;;;;;5128126;27;20208;-62
2024/01/14 02:27:54;;;;;;;17.52;16.63;;;-0.50;99.90;;;;;;5130203;27;20231;-60
2024/01/14 02:30:21;;;;;;;18.23;17.23;;;-0.40;99.90;;;;;;5129980;27;20213;-61
2024/01/14 02:32:50;;;;;;;18.27;17.17;;;-0.40;99.90;;;;;;5131256;27;20212;-61
2024/01/14 02:35:17;;;;;;;18.90;17.80;;;-0.40;99.90;;;;;;5126390;27;20612;-60
2024/01/14 02:37:44;;;;;;;19.35;18.25;;;-0.30;99.90;;;;;;5122085;27;20206;-62
2024/01/14 02:40:11;;;;;;;17.53;16.63;;;-0.30;99.90;;;;;;5127913;27;20980;-61
2024/01/14 02:42:40;;;;;;;17.37;16.47;;;-0.30;99.90;;;;;;5129830;27;20229;-60
2024/01/14 02:45:08;;;;;;;16.63;15.82;;;-0.30;99.90;;;;;;5122964;27;20221;-59
2024/01/14 02:47:35;;;;;;;15.77;14.98;;;-0.40;99.90;;;;;;5125917;27;20222;-60
2024/01/14 02:50:01;;;;;;;15.15;14.38;;;-0.40;99.90;;;;;;5128901;27;20204;-61
2024/01/14 02:52:28;;;;;;;15.60;14.80;;;-0.30;99.90;;;;;;5124011;27;20209;-60
2024/01/14 02:54:55;;;;;;;15.90;15.13;;;-0.30;99.90;;;;;;5123375;27;20595;-60
2024/01/14 02:57:21;;;;;;;16.00;15.20;;;-0.30;99.90;;;;;;5114732;27;20202;-62
2024/01/14 02:59:49;;;;;;;16.33;15.43;;;-0.30;99.90;;;;;;5113373;28;20194;-60
2024/01/14 03:02:16;;;;;;;15.87;15.07;;;-0.30;99.90;;;;;;5112390;28;20200;-61
2024/01/14 03:04:44;;;;;;;16.30;15.50;;;-0.30;99.90;;;;;;5111578;28;20213;-61
2024/01/14 03:07:11;;;;;;;16.90;15.88;;;-0.30;99.90;;;;;;5110783;28;20221;-61
2024/01/14 03:09:38;;;;;;;16.30;15.47;;;-0.20;99.90;;;;;;5111423;28;20213;-61
2024/01/14 03:12:05;;;;;;;16.00;15.20;;;-0.30;99.90;;;;;;5109265;28;20775;-61
2024/01/14 03:14:31;;;;;;;16.77;15.87;;;-0.30;99.90;;;;;;5112052;28;20236;-62
2024/01/14 03:17:00;;;;;;;16.70;15.83;;;-0.40;99.90;;;;;;5111392;28;20205;-60
2024/01/14 03:19:27;;;;;;;17.58;16.58;;;-0.50;99.90;;;;;;5111349;28;20236;-62
2024/01/14 03:21:54;;;;;;;17.02;16.02;;;-0.70;99.90;;;;;;5111501;28;20706;-62
2024/01/14 03:24:21;;;;;;;16.63;15.73;;;-0.70;99.90;;;;;;5111492;28;20254;-61
2024/01/14 03:26:47;;;;;;;17.17;16.27;;;-0.80;99.90;;;;;;5111357;28;20252;-61
2024/01/14 03:29:15;;;;;;;17.45;16.45;;;-0.70;99.90;;;;;;5111206;28;20209;-61
2024/01/14 03:31:41;;;;;;;16.80;15.90;;;-0.70;99.90;;;;;;5111798;28;20289;-61
2024/01/14 03:34:09;;;;;;;16.53;15.73;;;-0.70;99.90;;;;;;5111492;28;20218;-61
2024/01/14 03:36:36;;;;;;;16.07;15.17;;;-0.50;99.90;;;;;;5111236;28;20652;-60
2024/01/14 03:39:03;;;;;;;15.10;14.40;;;-0.50;99.90;;;;;;5110648;28;20201;-61
2024/01/14 03:41:30;;;;;;;16.48;15.57;;;-0.50;99.90;;;;;;5111401;28;20202;-60
2024/01/14 03:43:57;;;;;;;16.50;15.60;;;-0.50;99.90;;;;;;5111000;28;20766;-60
2024/01/14 03:46:24;;;;;;;18.20;17.13;;;-0.50;99.90;;;;;;5108991;28;20267;-60
2024/01/14 03:48:50;;;;;;;18.00;16.90;;;-0.70;99.90;;;;;;5110180;28;20205;-60
2024/01/14 03:51:18;;;;;;;17.67;16.57;;;-0.80;99.90;;;;;;5111417;28;20206;-62
2024/01/14 03:53:45;;;;;;;17.40;16.40;;;-0.90;99.90;;;;;;5108846;28;20217;-61
2024/01/14 03:56:12;;;;;;;17.73;16.70;;;-0.90;99.90;;;;;;5114008;28;20212;-61
2024/01/14 03:58:39;;;;;;;17.73;16.73;;;-0.90;99.90;;;;;;5121689;28;20206;-61
2024/01/14 04:01:06;;;;;;;16.23;15.32;;;-0.90;99.90;;;;;;5112888;28;20201;-60
2024/01/14 04:03:32;;;;;;;17.30;16.30;;;-1.00;99.90;;;;;;5112097;28;20226;-60
2024/01/14 04:05:59;;;;;;;17.17;16.17;;;-1.00;99.90;;;;;;5108148;28;20612;-60
2024/01/14 04:08:27;;;;;;;17.48;16.38;;;-1.10;99.90;;;;;;5107551;28;20328;-60
2024/01/14 04:10:54;;;;;;;17.65;16.65;;;-1.10;99.90;;;;;;5107534;28;20226;-60
2024/01/14 04:13:20;;;;;;;17.85;16.85;;;-1.20;99.90;;;;;;5114501;28;20240;-60
2024/01/14 04:15:47;;;;;;;17.10;16.20;;;-1.20;99.90;;;;;;5119858;28;20728;-60
2024/01/14 04:18:14;;;;;;;16.77;15.82;;;-1.20;99.90;;;;;;5118181;28;20234;-61
2024/01/14 04:20:41;;;;;;;16.55;15.65;;;-1.20;99.90;;;;;;5121471;28;20221;-61
2024/01/14 04:23:07;;;;;;;17.83;16.73;;;-1.20;99.90;;;;;;5116763;28;20218;-63
2024/01/14 04:25:35;;;;;;;17.67;16.58;;;-1.20;99.90;;;;;;5115559;28;21034;-60
2024/01/14 04:28:02;;;;;;;17.63;16.63;;;-1.20;99.90;;;;;;5110548;28;20229;-60
2024/01/14 04:30:29;;;;;;;17.52;16.52;;;-1.20;99.90;;;;;;5110675;28;20202;-61
2024/01/14 04:32:56;;;;;;;17.88;16.88;;;-1.30;99.90;;;;;;5111084;28;20571;-60
2024/01/14 04:35:22;;;;;;;17.63;16.63;;;-1.30;99.90;;;;;;5111178;28;20202;-61
2024/01/14 04:37:49;;;;;;;17.95;16.77;;;-1.30;99.90;;;;;;5106987;28;20194;-60
2024/01/14 04:40:16;;;;;;;15.97;15.07;;;-1.30;99.90;;;;;;5110894;28;20209;-60
2024/01/14 04:42:44;;;;;;;17.38;16.38;;;-1.40;99.90;;;;;;5108977;28;20198;-60
2024/01/14 04:45:11;;;;;;;18.27;17.08;;;-1.40;99.90;;;;;;5110976;28;20198;-61
2024/01/14 04:47:37;;;;;;;18.67;17.50;;;-1.40;99.90;;;;;;5109572;28;20692;-60
2024/01/14 04:50:04;;;;;;;17.63;16.42;;;-1.30;99.90;;;;;;5110555;28;20209;-61
2024/01/14 04:52:31;;;;;;;15.90;15.05;;;-1.40;99.90;;;;;;5128280;28;20198;-61
2024/01/14 04:54:58;;;;;;;16.85;15.93;;;-1.30;99.90;;;;;;5124251;28;20226;-62
2024/01/14 04:57:24;;;;;;;17.50;16.48;;;-1.30;99.90;;;;;;5124691;28;20202;-61
2024/01/14 04:59:53;;;;;;;17.20;16.10;;;-1.30;99.90;;;;;;5128107;28;20943;-61
2024/01/14 05:02:19;;;;;;;16.15;15.20;;;-1.40;99.90;;;;;;5119465;28;20637;-61
2024/01/14 05:04:46;;;;;;;16.00;15.10;;;-1.40;99.90;;;;;;5112434;28;20232;-60
2024/01/14 05:07:13;;;;;;;17.98;16.75;;;-1.40;99.90;;;;;;5121265;27;20710;-59
2024/01/14 05:09:40;;;;;;;16.60;15.50;;;-1.30;99.90;;;;;;5124407;27;20723;-60
2024/01/14 05:12:07;;;;;;;16.13;15.23;;;-1.20;99.90;;;;;;5126754;27;20212;-60
2024/01/14 05:14:34;;;;;;;17.03;16.03;;;-1.20;99.90;;;;;;5125273;27;20225;-61
2024/01/14 05:17:02;;;;;;;18.02;16.92;;;-1.10;99.90;;;;;;5128059;27;20298;-61
2024/01/14 05:19:28;;;;;;;17.15;16.05;;;-1.00;99.90;;;;;;5126935;27;20203;-60
2024/01/14 05:21:56;;;;;;;17.53;16.53;;;-0.90;99.90;;;;;;5126098;27;20210;-59
2024/01/14 05:24:23;;;;;;;16.73;15.83;;;-0.90;99.90;;;;;;5123919;27;20300;-61
2024/01/14 05:26:50;;;;;;;16.50;15.60;;;-1.00;99.90;;;;;;5126199;27;20197;-61
2024/01/14 05:29:16;;;;;;;17.83;16.73;;;-1.00;99.90;;;;;;5124851;27;20228;-60
2024/01/14 05:31:43;;;;;;;16.50;15.60;;;-1.00;99.90;;;;;;5126062;27;20209;-61
2024/01/14 05:34:11;;;;;;;16.58;15.60;;;-1.10;99.90;;;;;;5128716;27;20217;-62
2024/01/14 05:36:38;;;;;;;17.30;16.30;;;-1.10;99.90;;;;;;5120868;27;20201;-60
2024/01/14 05:39:05;;;;;;;16.13;15.23;;;-1.10;99.90;;;;;;5136209;27;20194;-60
2024/01/14 05:41:31;;;;;;;17.70;16.60;;;-1.10;99.90;;;;;;5132765;27;20209;-60
2024/01/14 05:43:58;;;;;;;16.73;15.83;;;-1.10;99.90;;;;;;5126304;27;20217;-60
2024/01/14 05:46:25;;;;;;;16.15;15.25;;;-1.00;99.90;;;;;;5129278;27;20209;-60
2024/01/14 05:48:52;;;;;;;17.80;16.70;;;-0.90;99.90;;;;;;5123654;27;20218;-60
2024/01/14 05:51:20;;;;;;;17.33;16.33;;;-0.90;99.90;;;;;;5125327;27;20206;-60
2024/01/14 05:53:46;;;;;;;17.92;16.83;;;-0.90;99.90;;;;;;5124484;27;20224;-61
2024/01/14 05:56:13;;;;;;;19.30;18.10;;;-1.00;99.90;;;;;;5127971;27;20208;-60
2024/01/14 05:58:42;;;;;;;16.47;15.47;;;-1.00;99.90;;;;;;5125161;27;20221;-60
2024/01/14 06:01:09;;;;;;;17.57;16.47;;;-1.10;99.90;;;;;;5125142;27;20243;-61
2024/01/14 06:03:36;;;;;;;17.93;16.83;;;-1.10;99.90;;;;;;5124215;27;20232;-60
2024/01/14 06:06:03;;;;;;;18.83;17.73;;;-1.30;99.90;;;;;;5118022;27;20204;-62
2024/01/14 06:08:31;;;;;;;19.33;18.15;;;-1.50;99.90;;;;;;5125065;27;20216;-62
2024/01/14 06:10:57;;;;;;;19.27;17.98;;;-1.50;99.90;;;;;;5125859;27;20244;-60
2024/01/14 06:13:24;;;;;;;18.58;17.38;;;-1.50;99.90;;;;;;5125278;27;20599;-60
2024/01/14 06:15:51;;;;;;;17.43;16.37;;;-1.50;99.90;;;;;;5127361;27;20228;-61
2024/01/14 06:18:17;;;;;;;16.97;15.97;;;-1.60;99.90;;;;;;5119066;27;20210;-60
2024/01/14 06:20:44;;;;;;;17.15;16.15;;;-1.40;99.90;;;;;;5121803;27;20202;-61
2024/01/14 06:23:11;;;;;;;17.38;16.35;;;-1.30;99.90;;;;;;5124430;27;20225;-60
2024/01/14 06:25:39;;;;;;;17.50;16.50;;;-1.30;99.90;;;;;;5127997;27;20236;-62
2024/01/14 06:28:07;;;;;;;17.57;16.47;;;-1.40;99.90;;;;;;5120466;27;20324;-60
2024/01/14 06:30:34;;;;;;;17.40;16.30;;;-1.40;99.90;;;;;;5128979;27;20258;-60
2024/01/14 06:33:01;;;;;;;17.55;16.52;;;-1.40;99.90;;;;;;5129661;27;20213;-61
2024/01/14 06:35:28;;;;;;;17.77;16.67;;;-1.40;99.90;;;;;;5128234;27;20209;-60
2024/01/14 06:37:54;;;;;;;18.00;16.83;;;-1.40;99.90;;;;;;5135987;27;20202;-60
2024/01/14 06:40:21;;;;;;;17.63;16.63;;;-1.40;99.90;;;;;;5124756;27;20555;-60
2024/01/14 06:42:49;;;;;;;17.80;16.65;;;-1.40;99.90;;;;;;5127228;27;20202;-59
2024/01/14 06:45:16;;;;;;;17.75;16.63;;;-1.40;99.90;;;;;;5126579;27;20201;-61
2024/01/14 06:47:43;;;;;;;16.60;15.60;;;-1.40;99.90;;;;;;5120464;27;20217;-61
2024/01/14 06:50:10;;;;;;;16.50;15.50;;;-1.40;99.90;;;;;;5124127;27;20201;-61
2024/01/14 06:52:37;;;;;;;17.02;15.98;;;-1.30;99.90;;;;;;5124747;27;20232;-59
2024/01/14 06:55:05;;;;;;;17.17;16.23;;;-1.30;99.90;;;;;;5122176;27;20240;-62
2024/01/14 06:57:32;;;;;;;17.40;16.40;;;-1.30;99.90;;;;;;5126118;27;20220;-60
2024/01/14 07:00:01;;;;;;;17.80;16.77;;;-1.40;99.90;;;;;;5124814;27;20686;-60
2024/01/14 07:02:27;;;;;;;16.60;15.60;;;-1.50;99.90;;;;;;5127310;27;20201;-60
2024/01/14 07:04:55;;;;;;;17.80;16.75;;;-1.60;99.90;;;;;;5125425;27;20245;-60
2024/01/14 07:07:22;;;;;;;18.05;16.95;;;-1.60;99.90;;;;;;5125659;27;20242;-60
2024/01/14 07:09:49;;;;;;;16.83;15.77;;;-1.60;99.90;;;;;;5121417;27;20224;-62
2024/01/14 07:12:16;;;;;;;16.63;15.63;;;-1.60;99.90;;;;;;5125390;27;20204;-61
2024/01/14 07:14:43;;;;;;;16.67;15.70;;;-1.40;99.90;;;;;;5123437;27;20304;-60
2024/01/14 07:17:11;;;;;;;16.92;15.73;;;-1.20;99.90;;;;;;5127590;27;20232;-61
2024/01/14 07:19:37;;;;;;;16.20;15.23;;;-1.00;99.90;;;;;;5126117;27;20197;-60
2024/01/14 07:22:06;;;;;;;16.60;15.70;;;-0.90;99.90;;;;;;5126738;27;20196;-61
2024/01/14 07:24:33;;;;;;;16.02;15.23;;;-0.80;99.90;;;;;;5137240;27;20221;-65
2024/01/14 07:27:01;;;;;;;16.80;15.85;;;-0.70;99.90;;;;;;5125149;27;20208;-61
2024/01/14 07:29:28;;;;;;;16.13;15.23;;;-0.60;99.90;;;;;;5123644;27;20217;-61
2024/01/14 07:31:55;;;;;;;15.90;15.07;;;-0.70;99.90;;;;;;5125829;27;20228;-62
2024/01/14 07:34:23;;;;;;;15.98;15.07;;;-0.70;99.90;;;;;;5126978;27;20547;-60
2024/01/14 07:36:50;;;;;;;17.40;16.40;;;-0.80;99.90;;;;;;5122909;27;20202;-60
2024/01/14 07:39:17;;;;;;;15.98;15.07;;;-0.90;99.90;;;;;;5124297;27;20204;-61
2024/01/14 07:41:43;;;;;;;16.13;15.20;;;-1.00;99.90;;;;;;5123678;27;20209;-59
2024/01/14 07:44:10;;;;;;;17.63;16.63;;;-0.90;99.90;;;;;;5128405;27;20225;-62
2024/01/14 07:46:37;;;;;;;16.98;16.08;;;-1.10;99.90;;;;;;5120524;27;20248;-61
2024/01/14 07:49:03;;;;;;;17.83;16.73;;;-1.10;99.90;;;;;;5121340;27;20217;-62
2024/01/14 07:51:32;;;;;;;16.83;15.83;;;-1.20;99.90;;;;;;5127376;27;20205;-59
2024/01/14 07:53:58;;;;;;;16.08;15.25;;;-1.10;99.90;;;;;;5124515;27;20217;-60
2024/01/14 07:56:25;;;;;;;16.85;15.95;;;-1.10;99.90;;;;;;5125415;27;20197;-60
2024/01/14 07:58:52;;;;;;;15.25;14.35;;;-1.20;99.90;;;;;;5124799;27;20194;-63
2024/01/14 08:01:18;;;;;;;15.93;15.02;;;-1.20;99.90;;;;;;5126383;27;20208;-63
2024/01/14 08:03:46;;;;;;;14.83;14.03;;;-1.10;99.90;;;;;;5124910;27;20218;-64
2024/01/14 08:06:13;;;;;;;15.65;14.75;;;-1.20;99.90;;;;;;5122269;27;20204;-64
2024/01/14 08:08:41;;;;;;;14.60;13.80;;;-1.20;99.90;;;;;;5125752;27;20224;-65
2024/01/14 08:11:08;;;;;;;15.43;14.53;;;-1.20;99.90;;;;;;5125120;27;20282;-65
2024/01/14 08:13:34;;;;;;;14.75;13.95;;;-1.30;99.90;;;;;;5126331;27;20232;-63
2024/01/14 08:16:01;;;;;;;15.20;14.40;;;-1.20;99.90;;;;;;5123398;28;20766;-62
2024/01/14 08:18:28;;;;;;;15.35;14.45;;;-1.20;99.90;;;;;;5128002;27;20217;-64
2024/01/14 08:20:54;;;;;;;15.57;14.68;;;-1.10;99.90;;;;;;5123229;28;20214;-64
2024/01/14 08:23:21;;;;;;;14.63;13.83;;;-1.10;99.90;;;;;;5123247;28;20231;-64
2024/01/14 08:25:49;;;;;;;16.00;15.10;;;-1.10;99.90;;;;;;5124995;27;20701;-65
2024/01/14 08:28:16;;;;;;;15.77;14.87;;;-1.10;99.90;;;;;;5122264;27;20214;-64
2024/01/14 08:30:43;;;;;;;14.67;13.87;;;-1.20;99.90;;;;;;5126814;27;20232;-64
2024/01/14 08:33:09;;;;;;;15.07;14.27;;;-1.20;99.90;;;;;;5123745;27;20218;-63
2024/01/14 08:35:36;;;;;;;15.00;14.10;;;-1.10;99.90;;;;;;5130253;27;20205;-64
2024/01/14 08:38:03;;;;;;;14.82;14.02;;;-1.10;99.90;;;;;;5125800;27;20205;-65
2024/01/14 08:40:30;;;;;;;14.83;14.10;;;-1.00;99.90;;;;;;5128446;27;20582;-65
2024/01/14 08:42:58;;;;;;;16.20;15.30;;;-0.90;99.90;;;;;;5128641;27;20209;-63
2024/01/14 08:45:24;;;;;;;15.30;14.50;;;-0.80;99.90;;;;;;5126327;27;20701;-66
2024/01/14 08:47:51;;;;;;;17.33;16.27;;;-0.80;99.90;;;;;;5123800;27;20213;-66
2024/01/14 08:50:20;;;;;;;15.77;14.97;;;-0.70;99.90;;;;;;5134066;27;20221;-71
2024/01/14 08:52:47;;;;;;;16.42;15.52;;;-0.70;99.90;;;;;;5135001;27;20210;-64
2024/01/14 08:55:14;;;;;;;16.55;15.75;;;-0.60;99.90;;;;;;5131787;27;20209;-64
2024/01/14 08:57:41;;;;;;;17.77;16.77;;;-0.40;99.90;;;;;;5129160;27;20217;-68
2024/01/14 09:00:10;;;;;;;16.33;15.53;;;-0.40;99.90;;;;;;5127100;27;20225;-64
2024/01/14 09:02:37;;;;;;;17.08;16.17;;;-0.50;99.90;;;;;;5124492;27;20201;-65
2024/01/14 09:05:05;;;;;;;17.33;16.42;;;-0.50;99.90;;;;;;5128584;27;20413;-65
2024/01/14 09:07:33;;;;;;;16.50;15.70;;;-0.50;99.90;;;;;;5119494;27;20263;-63
2024/01/14 09:10:00;;;;;;;16.77;15.87;;;-0.40;99.90;;;;;;5136877;27;20240;-63
2024/01/14 09:12:27;;;;;;;18.03;17.13;;;-0.30;99.90;;;;;;5132390;27;20193;-64
2024/01/14 09:14:53;;;;;;;17.73;16.90;;;-0.10;99.90;;;;;;5132857;27;20652;-64
2024/01/14 09:17:22;;;;;;;18.60;17.70;;;-0.10;99.90;;;;;;5127416;27;20245;-64
2024/01/14 09:19:49;;;;;;;17.73;16.93;;;-0.10;99.90;;;;;;5130523;27;20205;-64
2024/01/14 09:22:16;;;;;;;17.43;16.53;;;-0.10;99.90;;;;;;5132047;27;20245;-65
2024/01/14 09:24:45;;;;;;;17.57;16.67;;;0.10;99.90;;;;;;5121950;27;20230;-65
2024/01/14 09:27:12;;;;;;;18.42;17.35;;;0.10;99.90;;;;;;5128686;27;20230;-65
2024/01/14 09:29:39;;;;;;;16.43;15.63;;;0.20;99.90;;;;;;5126649;27;20225;-65
2024/01/14 09:32:06;;;;;;;16.63;15.82;;;0.20;99.90;;;;;;5132302;27;20194;-64
2024/01/14 09:34:34;;;;;;;16.63;15.83;;;0.30;99.90;;;;;;5128965;27;20753;-64
2024/01/14 09:37:01;;;;;;;16.05;15.23;;;0.50;99.90;;;;;;5129923;27;20197;-64
2024/01/14 09:39:28;;;;;;;16.58;15.73;;;0.50;99.90;;;;;;5129559;27;20202;-64
2024/01/14 09:42:08;;;;;;;15.83;15.03;;;0.50;99.90;;;;;;5130541;27;20202;-65
2024/01/14 09:44:35;;;;;;;15.55;14.75;;;0.60;99.90;;;;;;5131337;27;20220;-65
2024/01/14 09:47:03;;;;;;;16.08;15.23;;;0.60;99.90;;;;;;5130599;27;20197;-66
2024/01/14 09:49:30;;;;;;;15.95;15.15;;;0.60;99.90;;;;;;5125156;27;20750;-63
2024/01/14 09:51:59;;;;;;;16.70;15.80;;;0.80;99.90;;;;;;5129207;27;20209;-63
2024/01/14 09:54:26;;;;;;;15.87;15.03;;;0.80;99.90;;;;;;5126191;27;20225;-64
2024/01/14 09:56:55;;;;;;;16.85;15.90;;;0.90;99.90;;;;;;5131387;27;20206;-64
2024/01/14 09:59:22;;;;;;;15.53;14.73;;;1.20;99.90;;;;;;5130086;27;20705;-65
2024/01/14 10:01:52;;;;;;;15.77;14.97;;;1.10;99.90;;;;;;5128644;27;20201;-64
2024/01/14 10:04:20;;;;;;;15.93;15.13;;;1.10;99.90;;;;;;5127897;27;20217;-64
2024/01/14 10:06:48;;;;;;;15.15;14.43;;;1.20;99.90;;;;;;5127775;27;20217;-65
2024/01/14 10:09:17;;;;;;;16.43;15.53;;;1.30;99.90;;;;;;5129770;27;20220;-63
2024/01/14 10:11:43;;;;;;;16.00;15.20;;;1.30;99.90;;;;;;5130670;27;20205;-63
2024/01/14 10:14:11;;;;;;;16.67;15.77;;;1.40;99.90;;;;;;5132196;27;20469;-64
2024/01/14 10:16:39;;;;;;;15.70;14.88;;;1.50;99.90;;;;;;5131574;27;20226;-64
2024/01/14 10:19:05;;;;;;;16.67;15.83;;;1.40;99.90;;;;;;5132692;27;20190;-64
2024/01/14 10:21:32;;;;;;;16.63;15.73;;;1.30;99.90;;;;;;5128461;27;20269;-64
2024/01/14 10:24:00;;;;;;;16.33;15.53;;;1.30;99.90;;;;;;5127330;27;20226;-64
2024/01/14 10:26:28;;;;;;;17.17;16.27;;;1.40;99.90;;;;;;5128958;27;20205;-64
2024/01/14 10:29:02;;;;;;;16.40;15.53;;;1.60;99.90;;;;;;5129622;27;20218;-65
2024/01/14 10:31:31;;;;;;;16.70;15.90;;;1.70;99.90;;;;;;5131869;27;20291;-65
2024/01/14 10:33:59;;;;;;;16.80;15.90;;;1.80;99.90;;;;;;5131940;27;20252;-63
2024/01/14 10:36:28;;;;;;;16.90;16.00;;;1.60;99.90;;;;;;5132415;27;20313;-61
2024/01/14 10:38:56;;;;;;;18.07;17.07;;;1.30;99.90;;;;;;5129013;27;20201;-60
2024/01/14 10:41:24;;;;;;;17.50;16.60;;;1.10;99.90;;;;;;5123963;27;20204;-61
2024/01/14 10:43:52;;;;;;;18.10;17.20;;;1.10;99.90;;;;;;5129601;27;20228;-61
2024/01/14 10:46:19;;;;;;;16.63;15.83;;;1.40;99.90;;;;;;5131029;27;20210;-61
2024/01/14 10:48:50;;;;;;;17.17;16.23;;;1.50;99.90;;;;;;5127046;27;20205;-65
2024/01/14 10:51:21;;;;;;;18.30;17.30;;;1.50;99.90;;;;;;5129788;27;20653;-65
2024/01/14 10:53:55;;;;;;;17.03;16.13;;;1.30;99.90;;;;;;5127767;27;20224;-65
2024/01/14 10:56:30;;;;;;;17.80;16.87;;;1.30;99.90;;;;;;5123648;27;20552;-66
2024/01/14 10:59:01;;;;;;;17.93;16.93;;;1.10;99.90;;;;;;5120114;27;20208;-66
2024/01/14 11:01:31;;;;;;;16.80;15.87;;;0.90;99.90;;;;;;5127730;27;20197;-65
2024/01/14 11:03:58;;;;;;;17.27;16.37;;;1.00;99.90;;;;;;5123898;27;20228;-65
2024/01/14 11:06:26;;;;;;;17.07;16.17;;;1.00;99.90;;;;;;5126003;27;20219;-65
2024/01/14 11:08:53;;;;;;;17.57;16.60;;;1.10;99.90;;;;;;5125628;27;20672;-65
2024/01/14 11:11:27;;;;;;;17.57;16.60;;;1.20;99.90;;;;;;5126228;27;20202;-65
2024/01/14 11:14:02;;;;;;;16.52;15.65;;;1.20;99.90;;;;;;5124508;27;20240;-65
2024/01/14 11:16:36;;;;;;;17.20;16.30;;;1.10;99.90;;;;;;5127695;27;20205;-65
2024/01/14 11:19:15;;;;;;;16.57;15.77;;;1.10;99.90;;;;;;5089632;27;20584;-63
2024/01/14 11:21:51;;;;;;;17.93;16.97;;;1.10;99.90;;;;;;5090891;28;20326;-65
2024/01/14 11:24:21;;;;;;;17.57;16.60;;;1.10;99.90;;;;;;5091267;28;20715;-65
2024/01/14 11:26:48;;;;;;;17.77;16.67;;;0.90;99.90;;;;;;5087839;28;20202;-64
2024/01/14 11:29:14;;;;;;;17.63;16.73;;;1.00;99.90;;;;;;5084709;28;20208;-64
2024/01/14 11:32:04;;;;;;;17.47;16.53;;;1.00;99.90;;;;;;5087165;28;20203;-63
2024/01/14 11:34:57;;;;;;;19.13;18.02;;;0.90;99.90;;;;;;5091218;28;20210;-66
2024/01/14 11:37:44;;;;;;;17.43;16.53;;;0.80;99.90;;;;;;5092714;28;20218;-64
2024/01/14 11:40:17;;;;;;;18.07;17.17;;;0.80;99.90;;;;;;5089920;28;20570;-64
2024/01/14 11:42:50;;;;;;;17.42;16.42;;;0.90;99.90;;;;;;5091608;28;20658;-64
2024/01/14 11:45:36;;;;;;;17.57;16.67;;;0.90;99.90;;;;;;5087625;28;20203;-64
2024/01/14 11:48:05;;;;;;;17.10;16.10;;;1.00;99.90;;;;;;5085555;28;20207;-63
2024/01/14 11:50:33;;;;;;;17.70;16.70;;;1.00;99.90;;;;;;5083696;28;20195;-64
2024/01/14 11:53:03;;;;;;;17.37;16.47;;;1.20;99.90;;;;;;5086487;28;20215;-64
2024/01/14 11:55:31;;;;;;;18.10;17.10;;;1.10;99.90;;;;;;5084310;28;20903;-64
2024/01/14 11:58:13;;;;;;;19.20;18.10;;;1.00;99.90;;;;;;5082458;28;20258;-66
2024/01/14 12:00:40;;;;;;;17.23;16.23;;;0.90;99.90;;;;;;5082302;28;20199;-67
2024/01/14 12:03:08;;;;;;;16.98;16.08;;;0.70;99.90;;;;;;5080819;28;20207;-66
2024/01/14 12:05:38;;;;;;;17.83;16.83;;;0.80;99.90;;;;;;5084351;28;20203;-66
2024/01/14 12:08:05;;;;;;;18.17;17.17;;;0.90;99.90;;;;;;5082547;28;20242;-65
2024/01/14 12:10:32;;;;;;;17.97;16.97;;;0.90;99.90;;;;;;5085567;28;20203;-66
2024/01/14 12:13:01;;;;;;;17.10;16.20;;;0.90;99.90;;;;;;5082491;28;20238;-66
2024/01/14 12:15:28;;;;;;;18.48;17.35;;;0.80;99.90;;;;;;5086120;28;20202;-66
2024/01/14 12:17:57;;;;;;;16.97;16.10;;;0.80;99.90;;;;;;5083334;28;20231;-65
2024/01/14 12:20:25;;;;;;;17.63;16.57;;;0.80;99.90;;;;;;5081460;28;20607;-65
2024/01/14 12:22:58;;;;;;;17.57;16.67;;;0.80;99.90;;;;;;5089090;28;20587;-67
2024/01/14 12:25:25;;;;;;;18.00;16.93;;;0.80;99.90;;;;;;5084506;28;20709;-66
2024/01/14 12:27:52;;;;;;;18.33;17.33;;;0.70;99.90;;;;;;5081743;28;20207;-65
2024/01/14 12:30:30;;;;;;;17.05;16.10;;;0.70;99.90;;;;;;5077399;28;20214;-65